createdAt,value
2022-12-17T00:00:40.623Z,79.53
2022-12-17T00:01:31.710Z,75.22
2022-12-17T00:02:22.149Z,74.03
2022-12-17T00:03:19.932Z,73.80
2022-12-17T00:04:10.653Z,78.68
2022-12-17T00:05:01.218Z,78.78
2022-12-17T00:05:51.518Z,75.37
2022-12-17T00:06:42.954Z,72.53
2022-12-17T00:07:33.374Z,77.25
2022-12-17T00:08:23.735Z,78.68
2022-12-17T00:09:14.344Z,77.20
2022-12-17T00:10:04.647Z,76.00
2022-12-17T00:10:55.178Z,78.25
2022-12-17T00:11:45.961Z,77.03
2022-12-17T00:12:36.300Z,79.82
2022-12-17T00:13:38.012Z,73.87
2022-12-17T00:14:28.672Z,70.95
2022-12-17T00:15:18.953Z,71.22
2022-12-17T00:16:12.395Z,77.72
2022-12-17T00:17:03.289Z,77.03
2022-12-17T00:17:53.609Z,78.07
2022-12-17T00:18:44.401Z,73.78
2022-12-17T00:19:34.821Z,80.03
2022-12-17T00:20:25.833Z,82.25
2022-12-17T00:21:18.381Z,75.12
2022-12-17T00:22:09.284Z,69.50
2022-12-17T00:23:00.105Z,74.20
2022-12-17T00:23:50.583Z,77.07
2022-12-17T00:24:40.992Z,77.78
2022-12-17T00:25:31.372Z,71.05
2022-12-17T00:26:21.752Z,74.75
2022-12-17T00:28:04.113Z,76.93
2022-12-17T00:28:54.300Z,77.80
2022-12-17T00:29:46.574Z,81.80
2022-12-17T00:30:37.092Z,77.78
2022-12-17T00:31:27.959Z,72.68
2022-12-17T00:33:09.667Z,77.43
2022-12-17T00:34:50.538Z,83.00
2022-12-17T00:35:57.750Z,78.85
2022-12-17T00:36:48.015Z,77.80
2022-12-17T00:37:39.456Z,79.50
2022-12-17T00:38:37.194Z,77.47
2022-12-17T00:39:27.947Z,79.35
2022-12-17T00:40:18.359Z,78.75
2022-12-17T00:41:12.252Z,78.37
2022-12-17T00:42:02.537Z,80.93
2022-12-17T00:42:53.614Z,78.78
2022-12-17T00:43:46.996Z,79.07
2022-12-17T00:44:38.328Z,74.65
2022-12-17T00:45:29.045Z,79.87
2022-12-17T00:46:19.627Z,77.43
2022-12-17T00:47:11.470Z,73.25
2022-12-17T00:48:02.230Z,73.43
2022-12-17T00:48:52.522Z,80.38
2022-12-17T00:49:42.878Z,80.30
2022-12-17T00:50:33.187Z,79.10
2022-12-17T00:51:23.518Z,78.12
2022-12-17T00:52:13.988Z,84.15
2022-12-17T00:53:05.018Z,76.00
2022-12-17T00:53:55.307Z,80.10
2022-12-17T00:54:45.601Z,81.97
2022-12-17T00:55:36.076Z,74.05
2022-12-17T00:56:26.514Z,76.32
2022-12-17T00:57:16.829Z,84.10
2022-12-17T00:58:14.444Z,80.20
2022-12-17T00:59:04.754Z,77.40
2022-12-17T00:59:56.237Z,82.70
2022-12-17T01:01:37.604Z,80.18
2022-12-17T01:02:28.535Z,76.53
2022-12-17T01:04:18.487Z,76.45
2022-12-17T01:05:08.780Z,75.28
2022-12-17T01:05:59.708Z,80.60
2022-12-17T01:06:50.598Z,79.32
2022-12-17T01:07:41.073Z,83.07
2022-12-17T01:08:33.455Z,77.82
2022-12-17T01:09:24.477Z,74.93
2022-12-17T01:10:14.830Z,79.15
2022-12-17T01:11:06.165Z,76.70
2022-12-17T01:11:57.071Z,73.03
2022-12-17T01:12:47.621Z,77.22
2022-12-17T01:13:39.028Z,77.82
2022-12-17T01:14:30.373Z,78.40
2022-12-17T01:15:20.684Z,71.32
2022-12-17T01:16:11.206Z,77.00
2022-12-17T01:17:06.073Z,77.97
2022-12-17T01:17:56.478Z,74.55
2022-12-17T01:18:49.022Z,76.12
2022-12-17T01:19:39.393Z,75.32
2022-12-17T01:20:29.693Z,81.70
2022-12-17T01:21:19.934Z,82.85
2022-12-17T01:22:10.540Z,78.93
2022-12-17T01:23:01.305Z,79.20
2022-12-17T01:23:53.090Z,76.68
2022-12-17T01:24:43.391Z,74.50
2022-12-17T01:25:33.866Z,68.72
2022-12-17T01:26:24.343Z,80.28
2022-12-17T01:27:14.659Z,76.00
2022-12-17T01:28:09.652Z,77.25
2022-12-17T01:29:01.670Z,76.60
2022-12-17T01:29:52.016Z,78.43
2022-12-17T01:30:42.316Z,73.40
2022-12-17T01:31:35.587Z,75.47
2022-12-17T01:32:26.470Z,79.30
2022-12-17T01:33:32.608Z,78.28
2022-12-17T01:34:23.544Z,69.07
2022-12-17T01:35:14.338Z,74.95
2022-12-17T01:36:04.818Z,74.50
2022-12-17T01:36:55.123Z,79.55
2022-12-17T01:37:45.586Z,72.68
2022-12-17T01:38:38.025Z,75.68
2022-12-17T01:39:29.026Z,72.15
2022-12-17T01:40:19.455Z,73.85
2022-12-17T01:41:11.024Z,72.47
2022-12-17T01:42:01.403Z,73.82
2022-12-17T01:43:00.483Z,76.37
2022-12-17T01:43:53.069Z,83.70
2022-12-17T01:45:12.092Z,84.93
2022-12-17T01:46:05.608Z,80.70
2022-12-17T01:47:00.411Z,82.12
2022-12-17T01:47:56.989Z,82.07
2022-12-17T01:49:11.470Z,76.28
2022-12-17T01:50:02.345Z,73.18
2022-12-17T01:50:57.069Z,78.90
2022-12-17T01:51:49.732Z,73.07
2022-12-17T01:52:40.863Z,78.72
2022-12-17T01:53:34.012Z,82.53
2022-12-17T01:54:25.082Z,73.35
2022-12-17T01:55:18.468Z,77.43
2022-12-17T01:56:09.244Z,79.37
2022-12-17T01:57:02.141Z,84.32
2022-12-17T01:57:53.870Z,83.70
2022-12-17T01:58:44.321Z,77.15
2022-12-17T01:59:39.738Z,76.72
2022-12-17T02:00:34.780Z,83.25
2022-12-17T02:01:26.178Z,77.68
2022-12-17T02:02:17.088Z,86.25
2022-12-17T02:03:07.842Z,83.35
2022-12-17T02:03:58.512Z,79.15
2022-12-17T02:04:49.373Z,83.37
2022-12-17T02:05:44.979Z,77.15
2022-12-17T02:06:46.265Z,77.05
2022-12-17T02:07:42.805Z,80.50
2022-12-17T02:08:40.869Z,82.72
2022-12-17T02:10:00.708Z,75.53
2022-12-17T02:11:31.878Z,84.90
2022-12-17T02:13:09.014Z,85.57
2022-12-17T02:14:05.119Z,81.90
2022-12-17T02:15:00.990Z,82.12
2022-12-17T02:16:13.820Z,80.53
2022-12-17T02:17:13.463Z,80.72
2022-12-17T02:18:12.398Z,84.45
2022-12-17T02:19:09.824Z,81.87
2022-12-17T02:20:06.237Z,77.22
2022-12-17T02:21:16.082Z,81.65
2022-12-17T02:22:12.571Z,77.00
2022-12-17T02:23:34.886Z,87.88
2022-12-17T02:24:43.884Z,85.68
2022-12-17T02:26:00.597Z,84.10
2022-12-17T02:27:01.680Z,86.00
2022-12-17T02:27:53.299Z,84.62
2022-12-17T02:28:45.241Z,89.53
2022-12-17T02:29:39.136Z,78.37
2022-12-17T02:30:29.987Z,87.50
2022-12-17T02:31:21.004Z,79.28
2022-12-17T02:32:12.831Z,83.40
2022-12-17T02:33:05.811Z,79.57
2022-12-17T02:33:56.279Z,81.78
2022-12-17T02:34:46.769Z,84.85
2022-12-17T02:35:42.273Z,77.82
2022-12-17T02:36:32.737Z,81.93
2022-12-17T02:37:23.686Z,83.55
2022-12-17T02:38:15.409Z,84.13
2022-12-17T02:39:05.876Z,87.30
2022-12-17T02:39:59.819Z,86.43
2022-12-17T02:40:52.311Z,78.45
2022-12-17T02:42:04.459Z,89.72
2022-12-17T02:42:56.227Z,83.70
2022-12-17T02:44:40.599Z,87.93
2022-12-17T02:45:31.512Z,81.40
2022-12-17T02:46:22.845Z,82.50
2022-12-17T02:47:15.504Z,88.35
2022-12-17T02:48:08.097Z,86.07
2022-12-17T02:48:58.556Z,90.25
2022-12-17T02:49:50.923Z,85.00
2022-12-17T02:50:42.017Z,85.32
2022-12-17T02:51:33.099Z,89.65
2022-12-17T02:52:24.427Z,84.45
2022-12-17T02:53:18.393Z,87.35
2022-12-17T02:54:11.957Z,83.65
2022-12-17T02:55:02.332Z,87.57
2022-12-17T02:55:54.251Z,81.75
2022-12-17T02:56:44.890Z,87.35
2022-12-17T02:57:37.332Z,89.15
2022-12-17T02:58:30.936Z,84.95
2022-12-17T02:59:23.801Z,86.30
2022-12-17T03:00:14.177Z,89.20
2022-12-17T03:01:04.873Z,84.50
2022-12-17T03:01:55.564Z,85.45
2022-12-17T03:02:47.585Z,84.10
2022-12-17T03:03:38.653Z,81.70
2022-12-17T03:04:29.488Z,85.22
2022-12-17T03:05:43.963Z,88.05
2022-12-17T03:06:31.113Z,89.55
2022-12-17T03:07:23.213Z,86.07
2022-12-17T03:08:13.682Z,91.07
2022-12-17T03:09:04.465Z,86.20
2022-12-17T03:09:54.802Z,84.95
2022-12-17T03:10:47.929Z,88.03
2022-12-17T03:11:38.472Z,76.90
2022-12-17T03:12:28.795Z,86.32
2022-12-17T03:13:19.066Z,85.55
2022-12-17T03:14:10.640Z,90.62
2022-12-17T03:15:01.604Z,86.35
2022-12-17T03:15:51.899Z,82.43
2022-12-17T03:16:42.254Z,89.13
2022-12-17T03:17:32.708Z,87.80
2022-12-17T03:18:23.233Z,83.32
2022-12-17T03:19:14.184Z,86.75
2022-12-17T03:20:04.594Z,81.82
2022-12-17T03:20:54.987Z,83.65
2022-12-17T03:21:45.507Z,86.68
2022-12-17T03:22:35.944Z,83.78
2022-12-17T03:23:29.335Z,82.18
2022-12-17T03:24:20.225Z,83.22
2022-12-17T03:25:10.644Z,84.50
2022-12-17T03:26:00.959Z,87.80
2022-12-17T03:26:53.033Z,84.60
2022-12-17T03:27:44.072Z,82.22
2022-12-17T03:28:34.760Z,76.72
2022-12-17T03:29:25.574Z,82.20
2022-12-17T03:30:15.992Z,84.45
2022-12-17T03:31:06.392Z,81.85
2022-12-17T03:31:56.733Z,85.30
2022-12-17T03:32:47.146Z,86.37
2022-12-17T03:33:37.656Z,85.40
2022-12-17T03:34:28.992Z,86.22
2022-12-17T03:35:19.491Z,86.65
2022-12-17T03:36:12.261Z,88.65
2022-12-17T03:37:06.042Z,82.78
2022-12-17T03:37:56.442Z,77.57
2022-12-17T03:38:46.811Z,79.10
2022-12-17T03:39:37.746Z,79.93
2022-12-17T03:40:28.757Z,84.03
2022-12-17T03:41:19.102Z,82.50
2022-12-17T03:42:09.471Z,79.47
2022-12-17T03:42:59.719Z,82.18
2022-12-17T03:43:50.058Z,74.85
2022-12-17T03:44:41.054Z,76.53
2022-12-17T03:45:31.545Z,81.37
2022-12-17T03:46:22.013Z,81.85
2022-12-17T03:47:12.559Z,82.00
2022-12-17T03:48:03.007Z,83.00
2022-12-17T03:48:53.423Z,82.88
2022-12-17T03:49:44.231Z,76.25
2022-12-17T03:50:34.696Z,79.53
2022-12-17T03:51:25.139Z,85.85
2022-12-17T03:52:15.564Z,78.40
2022-12-17T03:53:05.810Z,78.53
2022-12-17T03:53:56.674Z,80.18
2022-12-17T03:54:47.642Z,84.15
2022-12-17T03:55:38.001Z,81.75
2022-12-17T03:56:28.412Z,80.72
2022-12-17T03:57:18.742Z,78.97
2022-12-17T03:58:09.298Z,85.00
2022-12-17T03:58:59.816Z,85.12
2022-12-17T03:59:50.667Z,85.47
2022-12-17T04:00:41.014Z,82.20
2022-12-17T04:01:32.014Z,78.70
2022-12-17T04:02:22.934Z,83.15
2022-12-17T04:03:13.708Z,83.28
2022-12-17T04:04:04.073Z,77.97
2022-12-17T04:04:54.517Z,74.87
2022-12-17T04:05:44.994Z,77.75
2022-12-17T04:06:35.956Z,78.82
2022-12-17T04:07:26.296Z,75.00
2022-12-17T04:08:16.787Z,79.18
2022-12-17T04:09:07.159Z,77.30
2022-12-17T04:09:57.659Z,80.05
2022-12-17T04:10:47.905Z,80.53
2022-12-17T04:11:38.670Z,85.93
2022-12-17T04:12:29.156Z,77.35
2022-12-17T04:13:19.672Z,78.22
2022-12-17T04:14:10.115Z,80.43
2022-12-17T04:15:00.710Z,75.25
2022-12-17T04:15:51.230Z,77.78
2022-12-17T04:16:42.253Z,75.28
2022-12-17T04:17:32.732Z,76.22
2022-12-17T04:18:22.989Z,76.53
2022-12-17T04:19:13.421Z,71.53
2022-12-17T04:20:03.903Z,78.50
2022-12-17T04:20:54.282Z,84.85
2022-12-17T04:21:45.575Z,79.43
2022-12-17T04:22:35.914Z,78.90
2022-12-17T04:23:46.178Z,78.90
2022-12-17T04:24:36.526Z,82.07
2022-12-17T04:25:27.317Z,81.20
2022-12-17T04:26:17.660Z,79.95
2022-12-17T04:27:08.447Z,77.75
2022-12-17T04:27:58.967Z,81.03
2022-12-17T04:28:49.190Z,74.18
2022-12-17T04:29:39.430Z,78.72
2022-12-17T04:30:30.028Z,75.62
2022-12-17T04:31:20.301Z,77.03
2022-12-17T04:32:11.262Z,82.10
2022-12-17T04:33:01.710Z,80.97
2022-12-17T04:33:52.178Z,72.22
2022-12-17T04:34:42.658Z,70.43
2022-12-17T04:35:32.875Z,78.57
2022-12-17T04:36:23.420Z,74.25
2022-12-17T04:37:14.651Z,80.47
2022-12-17T04:38:05.114Z,79.70
2022-12-17T04:38:55.480Z,79.45
2022-12-17T04:39:45.935Z,83.80
2022-12-17T04:40:47.055Z,77.90
2022-12-17T04:41:37.702Z,78.32
2022-12-17T04:42:36.104Z,79.12
2022-12-17T04:43:30.874Z,77.53
2022-12-17T04:44:21.479Z,78.37
2022-12-17T04:45:11.721Z,75.87
2022-12-17T04:46:02.192Z,77.12
2022-12-17T04:46:53.006Z,80.47
2022-12-17T04:47:44.003Z,77.05
2022-12-17T04:48:34.317Z,81.15
2022-12-17T04:49:24.765Z,78.20
2022-12-17T04:50:15.169Z,80.40
2022-12-17T04:51:05.619Z,72.20
2022-12-17T04:51:55.821Z,77.87
2022-12-17T04:52:46.633Z,72.28
2022-12-17T04:53:37.283Z,77.57
2022-12-17T04:54:27.920Z,74.97
2022-12-17T04:55:18.176Z,73.55
2022-12-17T04:56:09.055Z,76.93
2022-12-17T04:56:59.546Z,79.32
2022-12-17T04:57:50.605Z,72.75
2022-12-17T04:58:40.962Z,72.22
2022-12-17T04:59:31.201Z,73.93
2022-12-17T05:00:22.287Z,70.47
2022-12-17T05:01:13.901Z,75.40
2022-12-17T05:02:04.664Z,72.82
2022-12-17T05:02:55.530Z,73.60
2022-12-17T05:03:46.114Z,78.35
2022-12-17T05:04:36.432Z,75.07
2022-12-17T05:05:27.346Z,73.90
2022-12-17T05:06:18.267Z,77.68
2022-12-17T05:07:08.705Z,75.55
2022-12-17T05:07:59.704Z,71.72
2022-12-17T05:08:50.157Z,65.00
2022-12-17T05:09:40.738Z,73.87
2022-12-17T05:10:31.278Z,74.68
2022-12-17T05:11:23.273Z,70.60
2022-12-17T05:12:13.658Z,76.22
2022-12-17T05:13:04.616Z,71.57
2022-12-17T05:13:55.127Z,73.93
2022-12-17T05:14:45.463Z,73.10
2022-12-17T05:15:35.900Z,80.95
2022-12-17T05:16:26.942Z,78.43
2022-12-17T05:17:17.401Z,71.90
2022-12-17T05:18:08.311Z,62.83
2022-12-17T05:18:58.570Z,72.85
2022-12-17T05:19:49.035Z,69.75
2022-12-17T05:20:39.466Z,68.68
2022-12-17T05:21:33.321Z,75.30
2022-12-17T05:22:24.239Z,72.25
2022-12-17T05:23:15.200Z,71.40
2022-12-17T05:24:05.536Z,70.57
2022-12-17T05:24:55.921Z,68.28
2022-12-17T05:25:46.325Z,64.45
2022-12-17T05:26:43.922Z,69.12
2022-12-17T05:27:34.389Z,74.50
2022-12-17T05:28:25.372Z,74.25
2022-12-17T05:29:16.234Z,68.95
2022-12-17T05:30:06.676Z,70.22
2022-12-17T05:30:57.243Z,65.12
2022-12-17T05:31:47.748Z,68.75
2022-12-17T05:32:38.152Z,68.37
2022-12-17T05:33:29.280Z,67.72
2022-12-17T05:34:33.306Z,74.18
2022-12-17T05:35:24.316Z,67.90
2022-12-17T05:36:18.669Z,64.68
2022-12-17T05:37:09.067Z,65.05
2022-12-17T05:37:59.440Z,69.97
2022-12-17T05:38:50.400Z,64.90
2022-12-17T05:39:40.791Z,69.50
2022-12-17T05:40:31.204Z,67.87
2022-12-17T05:41:21.865Z,64.47
2022-12-17T05:42:12.422Z,66.97
2022-12-17T05:43:33.283Z,64.50
2022-12-17T05:44:24.862Z,69.30
2022-12-17T05:45:18.329Z,68.60
2022-12-17T05:46:09.201Z,65.05
2022-12-17T05:46:59.607Z,65.70
2022-12-17T05:47:50.049Z,68.50
2022-12-17T05:48:40.564Z,68.70
2022-12-17T05:49:31.523Z,67.57
2022-12-17T05:50:22.614Z,61.92
2022-12-17T05:51:13.046Z,73.00
2022-12-17T05:52:03.516Z,63.78
2022-12-17T05:52:53.788Z,66.78
2022-12-17T05:53:44.278Z,68.95
2022-12-17T05:54:35.320Z,65.75
2022-12-17T05:55:26.340Z,65.80
2022-12-17T05:56:16.682Z,69.50
2022-12-17T05:57:07.056Z,67.40
2022-12-17T05:57:57.483Z,73.32
2022-12-17T05:58:47.932Z,70.97
2022-12-17T05:59:38.774Z,64.35
2022-12-17T06:00:30.311Z,66.80
2022-12-17T06:01:24.228Z,68.90
2022-12-17T06:02:14.591Z,66.97
2022-12-17T06:03:05.042Z,66.10
2022-12-17T06:03:55.664Z,67.22
2022-12-17T06:04:46.521Z,67.85
2022-12-17T06:05:36.914Z,67.22
2022-12-17T06:06:27.819Z,67.80
2022-12-17T06:07:18.334Z,64.62
2022-12-17T06:08:08.852Z,73.82
2022-12-17T06:08:59.730Z,67.47
2022-12-17T06:09:50.127Z,67.72
2022-12-17T06:10:40.672Z,68.15
2022-12-17T06:11:31.856Z,64.95
2022-12-17T06:12:22.427Z,66.82
2022-12-17T06:13:16.259Z,63.35
2022-12-17T06:14:06.810Z,65.45
2022-12-17T06:14:57.133Z,64.78
2022-12-17T06:15:51.940Z,60.65
2022-12-17T06:16:42.511Z,64.47
2022-12-17T06:17:33.189Z,68.97
2022-12-17T06:18:23.561Z,60.80
2022-12-17T06:19:13.873Z,70.18
2022-12-17T06:20:04.234Z,62.25
2022-12-17T06:20:54.660Z,62.62
2022-12-17T06:21:45.293Z,65.62
2022-12-17T06:22:35.659Z,62.95
2022-12-17T06:23:28.711Z,64.43
2022-12-17T06:24:19.183Z,63.92
2022-12-17T06:25:09.408Z,66.55
2022-12-17T06:25:59.650Z,63.00
2022-12-17T06:26:50.714Z,61.40
2022-12-17T06:27:41.228Z,70.62
2022-12-17T06:28:31.631Z,60.67
2022-12-17T06:29:21.887Z,65.95
2022-12-17T06:30:18.314Z,59.75
2022-12-17T06:31:10.961Z,74.18
2022-12-17T06:32:01.889Z,61.67
2022-12-17T06:32:52.392Z,65.32
2022-12-17T06:33:42.741Z,63.53
2022-12-17T06:34:33.094Z,63.58
2022-12-17T06:35:23.988Z,65.00
2022-12-17T06:36:22.143Z,57.03
2022-12-17T06:37:14.188Z,63.30
2022-12-17T06:38:04.753Z,52.38
2022-12-17T06:38:55.120Z,64.47
2022-12-17T06:39:47.391Z,60.33
2022-12-17T06:40:37.896Z,66.10
2022-12-17T06:41:28.751Z,74.03
2022-12-17T06:42:19.626Z,59.58
2022-12-17T06:43:14.793Z,64.43
2022-12-17T06:44:05.216Z,61.30
2022-12-17T06:44:55.563Z,60.97
2022-12-17T06:45:47.380Z,57.35
2022-12-17T06:46:37.913Z,63.45
2022-12-17T06:47:28.848Z,61.90
2022-12-17T06:48:27.564Z,59.45
2022-12-17T06:49:17.994Z,63.63
2022-12-17T06:50:08.330Z,58.05
2022-12-17T06:50:58.675Z,67.07
2022-12-17T06:51:49.206Z,61.13
2022-12-17T06:52:40.192Z,59.20
2022-12-17T06:53:30.625Z,61.95
2022-12-17T06:54:20.914Z,63.72
2022-12-17T06:55:11.278Z,64.40
2022-12-17T06:56:01.752Z,73.50
2022-12-17T06:56:52.298Z,60.03
2022-12-17T06:57:47.410Z,62.30
2022-12-17T06:58:40.530Z,62.83
2022-12-17T06:59:30.908Z,66.03
2022-12-17T07:00:22.397Z,66.47
2022-12-17T07:01:12.931Z,63.58
2022-12-17T07:02:03.922Z,62.28
2022-12-17T07:03:45.645Z,62.80
2022-12-17T07:04:36.741Z,62.03
2022-12-17T07:05:27.745Z,70.97
2022-12-17T07:06:21.019Z,66.32
2022-12-17T07:07:11.354Z,62.95
2022-12-17T07:08:02.350Z,70.95
2022-12-17T07:08:52.858Z,71.68
2022-12-17T07:09:44.740Z,63.58
2022-12-17T07:10:35.311Z,64.75
2022-12-17T07:11:25.812Z,60.40
2022-12-17T07:12:16.160Z,70.47
2022-12-17T07:13:06.837Z,67.68
2022-12-17T07:13:57.414Z,71.53
2022-12-17T07:14:47.898Z,69.12
2022-12-17T07:15:38.432Z,67.60
2022-12-17T07:16:28.918Z,67.37
2022-12-17T07:17:19.582Z,66.60
2022-12-17T07:18:28.141Z,70.78
2022-12-17T07:19:21.386Z,68.43
2022-12-17T07:20:14.293Z,70.10
2022-12-17T07:21:05.743Z,69.00
2022-12-17T07:21:56.086Z,70.80
2022-12-17T07:22:46.412Z,72.12
2022-12-17T07:23:37.822Z,66.53
2022-12-17T07:24:31.549Z,71.85
2022-12-17T07:25:22.353Z,72.65
2022-12-17T07:26:12.888Z,74.55
2022-12-17T07:27:03.298Z,72.87
2022-12-17T07:27:53.575Z,72.85
2022-12-17T07:29:35.525Z,71.22
2022-12-17T07:30:26.554Z,70.90
2022-12-17T07:31:17.029Z,66.87
2022-12-17T07:32:07.493Z,73.35
2022-12-17T07:32:58.184Z,69.40
2022-12-17T07:33:49.156Z,69.60
2022-12-17T07:34:39.465Z,76.90
2022-12-17T07:35:29.790Z,73.45
2022-12-17T07:36:20.162Z,70.22
2022-12-17T07:37:24.229Z,72.93
2022-12-17T07:38:22.836Z,72.93
2022-12-17T07:39:13.779Z,67.32
2022-12-17T07:40:04.226Z,72.70
2022-12-17T07:40:54.650Z,70.60
2022-12-17T07:41:44.981Z,70.80
2022-12-17T07:42:35.341Z,74.57
2022-12-17T07:43:33.129Z,70.10
2022-12-17T07:44:23.886Z,67.95
2022-12-17T07:45:14.360Z,72.65
2022-12-17T07:46:04.706Z,70.85
2022-12-17T07:46:55.054Z,70.45
2022-12-17T07:47:45.359Z,64.93
2022-12-17T07:48:35.725Z,70.18
2022-12-17T07:49:26.926Z,65.53
2022-12-17T07:50:17.145Z,69.95
2022-12-17T07:51:08.600Z,70.03
2022-12-17T07:51:59.115Z,69.03
2022-12-17T07:52:49.438Z,69.57
2022-12-17T07:53:40.255Z,70.60
2022-12-17T07:54:31.254Z,70.32
2022-12-17T07:55:21.681Z,59.97
2022-12-17T07:56:12.029Z,65.43
2022-12-17T07:57:02.605Z,64.62
2022-12-17T07:57:52.973Z,62.42
2022-12-17T07:58:43.269Z,65.40
2022-12-17T07:59:34.258Z,64.82
2022-12-17T08:00:25.737Z,67.47
2022-12-17T08:01:20.805Z,64.55
2022-12-17T08:02:11.812Z,60.72
2022-12-17T08:03:02.734Z,63.92
2022-12-17T08:03:53.330Z,62.67
2022-12-17T08:04:43.736Z,69.22
2022-12-17T08:05:34.241Z,59.13
2022-12-17T08:06:25.285Z,64.93
2022-12-17T08:07:15.534Z,65.70
2022-12-17T08:08:05.886Z,63.53
2022-12-17T08:08:56.326Z,60.70
2022-12-17T08:09:46.808Z,65.43
2022-12-17T08:10:37.080Z,66.43
2022-12-17T08:11:27.901Z,65.45
2022-12-17T08:12:18.493Z,60.75
2022-12-17T08:13:16.599Z,64.65
2022-12-17T08:14:07.220Z,63.33
2022-12-17T08:14:57.735Z,66.75
2022-12-17T08:15:48.124Z,67.82
2022-12-17T08:16:38.974Z,64.72
2022-12-17T08:17:29.457Z,67.20
2022-12-17T08:18:26.148Z,62.40
2022-12-17T08:19:17.361Z,53.65
2022-12-17T08:20:07.736Z,62.03
2022-12-17T08:20:58.141Z,68.22
2022-12-17T08:21:49.200Z,69.57
2022-12-17T08:22:39.688Z,61.08
2022-12-17T08:23:30.101Z,62.62
2022-12-17T08:24:20.449Z,67.30
2022-12-17T08:25:10.785Z,62.60
2022-12-17T08:26:01.083Z,62.92
2022-12-17T08:26:52.043Z,64.80
2022-12-17T08:27:42.440Z,64.25
2022-12-17T08:28:50.107Z,57.97
2022-12-17T08:29:40.952Z,64.78
2022-12-17T08:30:31.486Z,69.18
2022-12-17T08:31:22.484Z,68.70
2022-12-17T08:33:03.242Z,67.25
2022-12-17T08:33:53.531Z,69.37
2022-12-17T08:34:43.792Z,66.53
2022-12-17T08:35:34.296Z,63.13
2022-12-17T08:36:24.666Z,68.62
2022-12-17T08:37:15.548Z,65.05
2022-12-17T08:38:06.027Z,67.62
2022-12-17T08:38:56.480Z,66.03
2022-12-17T08:39:46.860Z,69.90
2022-12-17T08:40:37.204Z,73.05
2022-12-17T08:41:27.745Z,64.57
2022-12-17T08:42:18.692Z,66.85
2022-12-17T08:43:15.598Z,69.45
2022-12-17T08:44:06.032Z,70.10
2022-12-17T08:44:57.184Z,67.85
2022-12-17T08:46:38.174Z,73.00
2022-12-17T08:47:29.370Z,73.30
2022-12-17T08:48:25.445Z,68.15
2022-12-17T08:49:15.956Z,67.43
2022-12-17T08:50:06.451Z,63.78
2022-12-17T08:50:56.965Z,85.22
2022-12-17T08:51:47.350Z,96.05
2022-12-17T08:52:38.303Z,74.03
2022-12-17T08:53:34.590Z,65.22
2022-12-17T08:54:25.352Z,68.55
2022-12-17T08:55:16.088Z,69.37
2022-12-17T08:56:07.086Z,66.12
2022-12-17T08:56:57.330Z,69.22
2022-12-17T08:57:48.398Z,64.05
2022-12-17T08:58:38.815Z,68.65
2022-12-17T08:59:29.145Z,69.90
2022-12-17T09:00:19.478Z,66.20
2022-12-17T09:01:10.308Z,77.00
2022-12-17T09:02:01.023Z,70.25
2022-12-17T09:02:59.639Z,71.05
2022-12-17T09:03:50.253Z,67.68
2022-12-17T09:04:40.713Z,68.85
2022-12-17T09:05:31.296Z,70.85
2022-12-17T09:06:21.950Z,66.82
2022-12-17T09:07:12.215Z,66.28
2022-12-17T09:08:03.500Z,62.92
2022-12-17T09:08:53.846Z,73.18
2022-12-17T09:09:44.242Z,65.35
2022-12-17T09:10:34.717Z,66.18
2022-12-17T09:11:25.323Z,70.12
2022-12-17T09:12:15.785Z,69.57
2022-12-17T09:13:06.668Z,67.60
2022-12-17T09:13:57.501Z,69.25
2022-12-17T09:14:48.028Z,69.35
2022-12-17T09:15:38.559Z,66.50
2022-12-17T09:16:28.968Z,74.57
2022-12-17T09:17:19.229Z,69.37
2022-12-17T09:18:10.933Z,69.05
2022-12-17T09:19:01.936Z,68.50
2022-12-17T09:19:52.350Z,75.93
2022-12-17T09:20:43.127Z,70.35
2022-12-17T09:21:33.670Z,81.22
2022-12-17T09:22:23.858Z,73.43
2022-12-17T09:23:14.840Z,67.95
2022-12-17T09:24:06.246Z,77.47
2022-12-17T09:24:56.619Z,77.40
2022-12-17T09:25:47.131Z,70.35
2022-12-17T09:26:37.573Z,74.03
2022-12-17T09:27:27.980Z,75.75
2022-12-17T09:28:22.567Z,69.82
2022-12-17T09:29:12.834Z,69.40
2022-12-17T09:30:03.095Z,77.22
2022-12-17T09:30:53.362Z,76.85
2022-12-17T09:31:43.804Z,73.93
2022-12-17T09:32:34.336Z,72.20
2022-12-17T09:33:34.242Z,73.40
2022-12-17T09:34:24.951Z,71.18
2022-12-17T09:35:15.266Z,74.03
2022-12-17T09:36:05.580Z,70.95
2022-12-17T09:36:56.224Z,69.00
2022-12-17T09:37:46.611Z,72.45
2022-12-17T09:38:37.487Z,64.78
2022-12-17T09:39:27.779Z,69.53
2022-12-17T09:40:18.296Z,75.55
2022-12-17T09:41:10.469Z,72.40
2022-12-17T09:42:03.891Z,71.12
2022-12-17T09:43:23.068Z,78.78
2022-12-17T09:44:23.033Z,70.90
2022-12-17T09:45:32.631Z,73.85
2022-12-17T09:46:41.452Z,71.62
2022-12-17T09:47:59.309Z,73.93
2022-12-17T09:49:11.141Z,73.97
2022-12-17T09:50:02.180Z,73.78
2022-12-17T09:50:52.496Z,70.95
2022-12-17T09:51:45.958Z,75.50
2022-12-17T09:52:54.343Z,72.70
2022-12-17T09:53:54.852Z,73.07
2022-12-17T09:55:01.692Z,71.50
2022-12-17T09:56:03.737Z,76.32
2022-12-17T09:57:52.178Z,75.00
2022-12-17T09:58:45.582Z,69.93
2022-12-17T09:59:46.652Z,70.45
2022-12-17T10:00:46.347Z,76.85
2022-12-17T10:01:41.357Z,70.00
2022-12-17T10:02:33.356Z,69.87
2022-12-17T10:03:31.466Z,75.87
2022-12-17T10:05:04.946Z,73.60
2022-12-17T10:05:55.734Z,73.40
2022-12-17T10:06:47.355Z,67.82
2022-12-17T10:07:43.449Z,73.85
2022-12-17T10:08:39.117Z,69.12
2022-12-17T10:09:37.706Z,62.97
2022-12-17T10:10:45.481Z,73.03
2022-12-17T10:11:40.446Z,66.72
2022-12-17T10:12:34.304Z,69.80
2022-12-17T10:13:33.397Z,68.87
2022-12-17T10:14:39.792Z,68.00
2022-12-17T10:15:33.844Z,72.07
2022-12-17T10:16:47.569Z,73.75
2022-12-17T10:17:40.531Z,62.20
2022-12-17T10:18:33.342Z,62.92
2022-12-17T10:19:30.406Z,66.62
2022-12-17T10:20:36.084Z,60.75
2022-12-17T10:21:29.840Z,69.15
2022-12-17T10:22:30.563Z,59.50
2022-12-17T10:23:21.428Z,64.45
2022-12-17T10:24:24.105Z,61.05
2022-12-17T10:25:21.657Z,62.28
2022-12-17T10:26:14.794Z,60.58
2022-12-17T10:27:07.796Z,66.70
2022-12-17T10:27:58.347Z,69.95
2022-12-17T10:28:50.991Z,72.80
2022-12-17T10:29:48.062Z,66.03
2022-12-17T10:30:39.161Z,65.78
2022-12-17T10:31:40.391Z,69.05
2022-12-17T10:32:33.886Z,69.03
2022-12-17T10:33:26.128Z,65.00
2022-12-17T10:34:17.073Z,71.62
2022-12-17T10:35:07.984Z,71.40
2022-12-17T10:36:01.803Z,76.75
2022-12-17T10:36:52.933Z,73.10
2022-12-17T10:37:50.465Z,65.55
2022-12-17T10:38:46.730Z,78.95
2022-12-17T10:39:42.353Z,71.03
2022-12-17T10:40:42.901Z,73.55
2022-12-17T10:41:49.085Z,72.57
2022-12-17T10:42:59.197Z,71.32
2022-12-17T10:43:52.507Z,68.53
2022-12-17T10:44:49.920Z,69.50
2022-12-17T10:45:54.744Z,69.35
2022-12-17T10:46:47.584Z,74.50
2022-12-17T10:47:48.859Z,73.80
2022-12-17T10:48:43.160Z,73.75
2022-12-17T10:49:40.394Z,75.00
2022-12-17T10:50:34.657Z,72.20
2022-12-17T10:51:40.153Z,65.78
2022-12-17T10:52:48.051Z,69.30
2022-12-17T10:53:43.978Z,75.15
2022-12-17T10:54:52.648Z,72.80
2022-12-17T10:55:48.297Z,72.53
2022-12-17T10:56:43.731Z,72.93
2022-12-17T10:57:52.016Z,63.25
2022-12-17T10:58:48.183Z,69.57
2022-12-17T11:00:04.890Z,50.22
2022-12-17T11:00:58.282Z,68.30
2022-12-17T11:01:49.900Z,70.25
2022-12-17T11:02:48.945Z,65.20
2022-12-17T11:03:54.766Z,66.78
2022-12-17T11:04:55.484Z,70.82
2022-12-17T11:05:48.518Z,71.00
2022-12-17T11:06:48.612Z,71.50
2022-12-17T11:07:50.357Z,67.12
2022-12-17T11:08:42.822Z,69.22
2022-12-17T11:09:42.466Z,63.58
2022-12-17T11:10:39.100Z,63.38
2022-12-17T11:11:32.749Z,68.40
2022-12-17T11:12:30.503Z,69.37
2022-12-17T11:13:27.256Z,73.65
2022-12-17T11:14:20.411Z,69.62
2022-12-17T11:15:15.493Z,70.53
2022-12-17T11:16:09.172Z,68.03
2022-12-17T11:17:13.572Z,78.37
2022-12-17T11:18:26.455Z,71.40
2022-12-17T11:19:33.534Z,70.10
2022-12-17T11:20:41.946Z,68.87
2022-12-17T11:21:41.718Z,62.05
2022-12-17T11:22:47.526Z,68.97
2022-12-17T11:23:40.170Z,64.62
2022-12-17T11:24:46.608Z,63.20
2022-12-17T11:25:45.066Z,63.55
2022-12-17T11:26:38.661Z,61.92
2022-12-17T11:27:37.300Z,66.50
2022-12-17T11:28:40.796Z,65.65
2022-12-17T11:29:32.887Z,55.03
2022-12-17T11:30:31.559Z,66.05
2022-12-17T11:31:37.583Z,64.30
2022-12-17T11:32:33.896Z,54.45